createdAt,value
2019-03-21T00:02:01.791Z,76.86
2019-03-21T00:04:32.597Z,77.03
2019-03-21T00:07:03.618Z,76.75
2019-03-21T00:09:34.197Z,77.02
2019-03-21T00:12:13.766Z,77.07
2019-03-21T00:14:50.463Z,76.83
2019-03-21T00:17:44.618Z,76.86
2019-03-21T00:20:17.765Z,76.67
2019-03-21T00:22:48.245Z,77.11
2019-03-21T00:25:22.437Z,77.18
2019-03-21T00:27:53.239Z,77.38
2019-03-21T00:30:28.314Z,77.19
2019-03-21T00:32:59.131Z,77.16
2019-03-21T00:35:29.936Z,77.45
2019-03-21T00:38:00.787Z,77.29
2019-03-21T00:40:40.474Z,77.35
2019-03-21T00:43:12.701Z,77.58
2019-03-21T00:45:43.138Z,77.41
2019-03-21T00:48:16.847Z,77.65
2019-03-21T00:50:47.685Z,77.48
2019-03-21T00:53:18.159Z,77.73
2019-03-21T00:55:54.314Z,77.69
2019-03-21T00:58:25.266Z,77.79
2019-03-21T01:00:59.421Z,77.93
2019-03-21T01:03:32.799Z,77.41
2019-03-21T01:06:03.556Z,77.67
2019-03-21T01:08:34.578Z,77.53
2019-03-21T01:11:05.190Z,77.87
2019-03-21T01:13:38.391Z,77.22
2019-03-21T01:16:12.341Z,77.83
2019-03-21T01:18:47.539Z,77.65
2019-03-21T01:21:18.417Z,77.84
2019-03-21T01:23:49.181Z,77.92
2019-03-21T01:26:19.903Z,78.38
2019-03-21T01:28:50.794Z,78.41
2019-03-21T01:31:21.652Z,78.48
2019-03-21T01:33:52.133Z,78.57
2019-03-21T01:36:24.449Z,78.77
2019-03-21T01:38:55.276Z,78.18
2019-03-21T01:41:26.077Z,78.57
2019-03-21T01:43:56.958Z,78.41
2019-03-21T01:46:28.111Z,78.30
2019-03-21T01:48:58.919Z,78.34
2019-03-21T01:51:29.759Z,78.07
2019-03-21T01:54:00.607Z,78.22
2019-03-21T01:56:31.913Z,78.09
2019-03-21T01:59:02.702Z,78.21
2019-03-21T02:01:33.908Z,78.24
2019-03-21T02:04:04.484Z,77.90
2019-03-21T02:06:35.347Z,78.04
2019-03-21T02:09:08.603Z,78.09
2019-03-21T02:11:39.438Z,77.90
2019-03-21T02:14:10.873Z,77.89
2019-03-21T02:16:41.836Z,77.96
2019-03-21T02:19:12.750Z,77.89
2019-03-21T02:21:43.719Z,77.95
2019-03-21T02:24:14.641Z,78.05
2019-03-21T02:26:45.368Z,78.09
2019-03-21T02:29:16.306Z,77.91
2019-03-21T02:31:47.224Z,78.03
2019-03-21T02:34:17.737Z,78.07
2019-03-21T02:36:48.827Z,77.98
2019-03-21T02:39:19.545Z,77.89
2019-03-21T02:41:50.294Z,77.87
2019-03-21T02:44:21.023Z,77.60
2019-03-21T02:46:51.551Z,77.75
2019-03-21T02:49:22.402Z,77.73
2019-03-21T02:51:52.963Z,77.54
2019-03-21T02:54:23.391Z,77.83
2019-03-21T02:56:54.279Z,77.54
2019-03-21T02:59:25.268Z,77.71
2019-03-21T03:01:56.266Z,78.03
2019-03-21T03:04:27.094Z,78.07
2019-03-21T03:07:01.345Z,78.02
2019-03-21T03:09:32.972Z,77.94
2019-03-21T03:12:03.708Z,78.20
2019-03-21T03:14:34.696Z,78.25
2019-03-21T03:17:06.137Z,77.91
2019-03-21T03:19:36.940Z,78.49
2019-03-21T03:22:07.938Z,77.76
2019-03-21T03:24:38.613Z,78.22
2019-03-21T03:27:09.631Z,77.92
2019-03-21T03:29:40.451Z,77.98
2019-03-21T03:32:10.947Z,77.74
2019-03-21T03:34:41.917Z,77.99
2019-03-21T03:37:12.548Z,77.83
2019-03-21T03:39:45.150Z,77.94
2019-03-21T03:42:16.098Z,77.68
2019-03-21T03:44:47.230Z,77.68
2019-03-21T03:47:18.199Z,77.92
2019-03-21T03:49:49.016Z,77.80
2019-03-21T03:52:20.230Z,77.77
2019-03-21T03:54:51.013Z,78.08
2019-03-21T03:57:24.518Z,77.87
2019-03-21T03:59:55.484Z,77.73
2019-03-21T04:02:26.434Z,77.44
2019-03-21T04:04:57.343Z,77.35
2019-03-21T04:07:28.256Z,77.33
2019-03-21T04:09:58.824Z,77.34
2019-03-21T04:12:29.973Z,77.42
2019-03-21T04:15:00.975Z,77.29
2019-03-21T04:17:31.573Z,77.50
2019-03-21T04:20:02.544Z,77.40
2019-03-21T04:22:33.382Z,77.27
2019-03-21T04:25:05.031Z,77.08
2019-03-21T04:27:36.097Z,77.18
2019-03-21T04:30:10.251Z,77.32
2019-03-21T04:32:41.138Z,77.51
2019-03-21T04:35:15.054Z,77.32
2019-03-21T04:37:46.094Z,77.30
2019-03-21T04:40:18.649Z,77.43
2019-03-21T04:42:49.090Z,77.56
2019-03-21T04:45:22.462Z,77.48
2019-03-21T04:47:53.319Z,77.42
2019-03-21T04:50:29.979Z,77.40
2019-03-21T04:53:00.790Z,77.63
2019-03-21T04:55:34.281Z,77.25
2019-03-21T04:58:04.868Z,77.47
2019-03-21T05:00:41.110Z,77.27
2019-03-21T05:03:20.658Z,77.16
2019-03-21T05:05:51.548Z,77.33
2019-03-21T05:08:22.387Z,77.75
2019-03-21T05:10:53.296Z,77.35
2019-03-21T05:13:24.271Z,77.78
2019-03-21T05:15:55.347Z,77.69
2019-03-21T05:18:35.561Z,77.58
2019-03-21T05:21:09.640Z,77.72
2019-03-21T05:23:40.407Z,77.73
2019-03-21T05:26:11.283Z,77.94
2019-03-21T05:28:42.137Z,78.01
2019-03-21T05:31:16.291Z,78.06
2019-03-21T05:33:47.065Z,77.54
2019-03-21T05:36:17.963Z,77.91
2019-03-21T05:38:48.947Z,77.64
2019-03-21T05:41:19.972Z,77.63
2019-03-21T05:44:00.787Z,77.77
2019-03-21T05:46:32.337Z,77.71
2019-03-21T05:49:03.320Z,77.68
2019-03-21T05:51:37.693Z,78.06
2019-03-21T05:54:08.652Z,77.75
2019-03-21T05:56:39.389Z,77.77
2019-03-21T05:59:10.365Z,77.73
2019-03-21T06:01:41.140Z,77.78
2019-03-21T06:04:12.065Z,77.32
2019-03-21T06:07:00.243Z,77.48
2019-03-21T06:09:31.469Z,77.46
2019-03-21T06:12:04.571Z,77.48
2019-03-21T06:14:38.523Z,77.19
2019-03-21T06:17:10.931Z,77.19
2019-03-21T06:20:04.259Z,77.18
2019-03-21T06:22:53.332Z,76.99
2019-03-21T06:25:44.062Z,76.97
2019-03-21T06:28:14.895Z,76.84
2019-03-21T06:30:47.490Z,76.87
2019-03-21T06:33:19.446Z,77.05
2019-03-21T06:35:53.251Z,76.89
2019-03-21T06:38:24.004Z,76.94
2019-03-21T06:40:55.127Z,76.83
2019-03-21T06:43:25.969Z,76.89
2019-03-21T06:45:58.323Z,76.72
2019-03-21T06:48:29.225Z,76.83
2019-03-21T06:51:03.191Z,76.78
2019-03-21T06:53:34.047Z,76.50
2019-03-21T06:56:04.887Z,76.53
2019-03-21T06:58:35.825Z,76.46
2019-03-21T07:01:06.755Z,76.17
2019-03-21T07:03:37.675Z,76.40
2019-03-21T07:06:12.781Z,76.34
2019-03-21T07:08:43.711Z,76.16
2019-03-21T07:11:14.635Z,76.07
2019-03-21T07:13:45.588Z,76.29
2019-03-21T07:16:19.535Z,76.14
2019-03-21T07:18:50.543Z,76.02
2019-03-21T07:21:21.436Z,76.05
2019-03-21T07:23:52.277Z,76.17
2019-03-21T07:26:23.085Z,76.28
2019-03-21T07:28:54.026Z,76.27
2019-03-21T07:31:26.111Z,76.27
2019-03-21T07:33:59.462Z,76.52
2019-03-21T07:36:30.902Z,76.66
2019-03-21T07:39:01.693Z,76.51
2019-03-21T07:41:32.600Z,76.59
2019-03-21T07:44:03.382Z,76.57
2019-03-21T07:46:33.927Z,76.72
2019-03-21T07:49:04.697Z,76.58
2019-03-21T07:51:35.536Z,76.31
2019-03-21T07:54:06.440Z,76.62
2019-03-21T07:56:37.166Z,76.91
2019-03-21T07:59:07.989Z,76.64
2019-03-21T08:01:38.577Z,76.49
2019-03-21T08:04:11.062Z,76.37
2019-03-21T08:06:41.749Z,76.53
2019-03-21T08:09:12.546Z,76.51
2019-03-21T08:11:43.411Z,76.73
2019-03-21T08:14:14.474Z,76.82
2019-03-21T08:16:45.060Z,76.55
2019-03-21T08:19:16.271Z,76.58
2019-03-21T08:21:47.098Z,76.62
2019-03-21T08:24:21.426Z,76.78
2019-03-21T08:26:51.884Z,76.77
2019-03-21T08:29:22.380Z,76.92
2019-03-21T08:31:53.157Z,76.89
2019-03-21T08:34:24.084Z,76.59
2019-03-21T08:36:56.263Z,76.62
2019-03-21T08:39:27.192Z,76.80
2019-03-21T08:41:58.026Z,76.61
2019-03-21T08:44:29.599Z,76.94
2019-03-21T08:47:00.452Z,76.50
2019-03-21T08:49:31.265Z,76.47
2019-03-21T08:52:02.264Z,76.56
2019-03-21T08:54:35.016Z,76.56
2019-03-21T08:57:08.686Z,76.61
2019-03-21T08:59:41.264Z,76.28
2019-03-21T09:02:12.093Z,76.03
2019-03-21T09:04:42.932Z,76.33
2019-03-21T09:07:14.193Z,76.18
2019-03-21T09:09:45.146Z,76.00
2019-03-21T09:12:15.954Z,75.85
2019-03-21T09:14:46.895Z,75.82
2019-03-21T09:17:18.814Z,75.50
2019-03-21T09:19:49.594Z,75.53
2019-03-21T09:22:20.610Z,75.57
2019-03-21T09:24:51.363Z,75.55
2019-03-21T09:27:21.752Z,75.36
2019-03-21T09:29:53.710Z,75.39
2019-03-21T09:32:28.242Z,75.15
2019-03-21T09:34:58.730Z,74.70
2019-03-21T09:37:29.534Z,74.18
2019-03-21T09:40:00.406Z,74.50
2019-03-21T09:42:31.215Z,74.01
2019-03-21T09:45:03.808Z,74.50
2019-03-21T09:47:34.631Z,74.50
2019-03-21T09:50:07.258Z,74.29
2019-03-21T09:52:38.112Z,74.60
2019-03-21T09:55:09.294Z,74.52
2019-03-21T09:57:40.144Z,74.46
2019-03-21T10:00:12.390Z,74.50
2019-03-21T10:02:43.324Z,74.49
2019-03-21T10:05:13.793Z,74.12
2019-03-21T10:07:49.058Z,74.38
2019-03-21T10:10:26.202Z,74.34
2019-03-21T10:12:59.087Z,74.06
2019-03-21T10:15:30.085Z,74.18
2019-03-21T10:18:01.263Z,74.22
2019-03-21T10:20:32.088Z,73.89
2019-03-21T10:23:03.028Z,73.86
2019-03-21T10:25:33.753Z,73.64
2019-03-21T10:28:07.052Z,73.12
2019-03-21T10:30:39.420Z,73.33
2019-03-21T10:33:11.988Z,73.44
2019-03-21T10:35:42.879Z,73.48
2019-03-21T10:38:14.255Z,73.27
2019-03-21T10:40:46.337Z,73.19
2019-03-21T10:43:17.186Z,72.99
2019-03-21T10:45:47.924Z,72.60
2019-03-21T10:48:18.696Z,72.37
2019-03-21T10:50:49.774Z,72.56
2019-03-21T10:53:20.626Z,72.50
2019-03-21T10:55:51.547Z,72.54
2019-03-21T10:58:22.500Z,72.57
2019-03-21T11:00:53.979Z,72.79
2019-03-21T11:03:24.928Z,72.45
2019-03-21T11:05:55.415Z,71.93
2019-03-21T11:08:26.300Z,72.41
2019-03-21T11:10:57.111Z,72.35
2019-03-21T11:13:28.013Z,72.22
2019-03-21T11:15:58.877Z,72.47
2019-03-21T11:18:35.944Z,72.53
2019-03-21T11:21:03.223Z,72.78
2019-03-21T11:23:34.024Z,72.82
2019-03-21T11:26:04.901Z,73.23
2019-03-21T11:28:35.762Z,72.73
2019-03-21T11:31:06.690Z,73.16
2019-03-21T11:33:37.511Z,73.11
2019-03-21T11:36:09.911Z,72.94
2019-03-21T11:38:40.729Z,72.88
2019-03-21T11:41:11.447Z,72.10
2019-03-21T11:43:42.520Z,71.96
2019-03-21T11:46:13.774Z,72.50
2019-03-21T11:48:44.331Z,71.98
2019-03-21T11:51:15.232Z,72.25
2019-03-21T11:53:46.096Z,72.62
2019-03-21T11:56:18.518Z,72.47
2019-03-21T11:58:49.058Z,72.51
2019-03-21T12:01:19.798Z,72.41
2019-03-21T12:03:50.613Z,72.34
2019-03-21T12:06:21.463Z,71.98
2019-03-21T12:08:52.293Z,71.84
2019-03-21T12:11:23.030Z,71.70
2019-03-21T12:13:53.751Z,71.61
2019-03-21T12:16:24.501Z,71.57
2019-03-21T12:18:55.414Z,71.48
2019-03-21T12:21:26.412Z,71.14
2019-03-21T12:23:57.201Z,71.27
2019-03-21T12:26:28.084Z,71.63
2019-03-21T12:28:58.907Z,71.56
2019-03-21T12:31:31.346Z,71.57
2019-03-21T12:34:01.851Z,71.73
2019-03-21T12:36:32.533Z,71.99
2019-03-21T12:39:03.265Z,72.03
2019-03-21T12:41:34.114Z,72.38
2019-03-21T12:44:04.938Z,72.24
2019-03-21T12:46:35.780Z,72.69
2019-03-21T12:49:06.515Z,72.61
2019-03-21T12:51:37.352Z,72.76
2019-03-21T12:54:08.365Z,72.58
2019-03-21T12:56:39.214Z,72.08
2019-03-21T12:59:09.954Z,71.69
2019-03-21T13:01:40.996Z,72.29
2019-03-21T13:04:11.476Z,72.05
2019-03-21T13:06:44.869Z,71.82
2019-03-21T13:09:17.477Z,71.30
2019-03-21T13:11:48.341Z,71.52
2019-03-21T13:14:19.173Z,71.33
2019-03-21T13:16:49.907Z,71.31
2019-03-21T13:19:20.678Z,70.87
2019-03-21T13:21:51.534Z,71.36
2019-03-21T13:24:22.373Z,71.57
2019-03-21T13:26:53.266Z,71.31
2019-03-21T13:29:25.134Z,71.13
2019-03-21T13:31:55.899Z,70.99
2019-03-21T13:34:27.249Z,71.03
2019-03-21T13:36:58.025Z,71.07
2019-03-21T13:39:28.993Z,71.38
2019-03-21T13:42:00.964Z,71.05
2019-03-21T13:44:31.720Z,70.96
2019-03-21T13:47:02.621Z,71.27
2019-03-21T13:49:33.476Z,71.22
2019-03-21T13:52:04.914Z,71.04
2019-03-21T13:54:35.977Z,71.55
2019-03-21T13:57:06.678Z,71.40
2019-03-21T13:59:37.585Z,71.70
2019-03-21T14:02:08.431Z,71.85
2019-03-21T14:04:39.191Z,71.14
2019-03-21T14:07:10.529Z,71.46
2019-03-21T14:09:41.548Z,71.15
2019-03-21T14:12:14.404Z,71.23
2019-03-21T14:14:45.086Z,70.94
2019-03-21T14:17:21.954Z,70.74
2019-03-21T14:19:47.972Z,70.22
2019-03-21T14:22:21.234Z,70.34
2019-03-21T14:24:51.298Z,70.40
2019-03-21T14:27:22.107Z,70.17
2019-03-21T14:30:00.767Z,70.32
2019-03-21T14:32:25.068Z,70.49
2019-03-21T14:34:58.176Z,70.57
2019-03-21T14:37:28.611Z,70.63
2019-03-21T14:39:59.287Z,70.64
2019-03-21T14:42:30.159Z,70.44
2019-03-21T14:45:00.977Z,70.56
2019-03-21T14:47:36.446Z,70.46
2019-03-21T14:50:09.633Z,70.10
2019-03-21T14:52:40.438Z,70.07
2019-03-21T14:55:12.819Z,70.04
2019-03-21T14:57:45.110Z,69.69
2019-03-21T15:00:18.359Z,69.94
2019-03-21T15:02:49.238Z,69.88
2019-03-21T15:05:20.054Z,69.74
2019-03-21T15:07:50.990Z,69.81
2019-03-21T15:10:21.728Z,69.23
2019-03-21T15:12:52.464Z,69.33
2019-03-21T15:15:23.303Z,69.10
2019-03-21T15:17:54.334Z,69.29
2019-03-21T15:20:29.168Z,69.19
2019-03-21T15:23:00.189Z,69.44
2019-03-21T15:25:31.119Z,69.13
2019-03-21T15:28:01.989Z,69.92
2019-03-21T15:30:32.749Z,69.40
2019-03-21T15:33:03.676Z,70.18
2019-03-21T15:35:34.415Z,69.82
2019-03-21T15:38:05.282Z,70.21
2019-03-21T15:40:36.201Z,70.07
2019-03-21T15:43:07.007Z,70.14
2019-03-21T15:45:37.910Z,70.21
2019-03-21T15:48:08.816Z,70.12
2019-03-21T15:50:39.631Z,70.09
2019-03-21T15:53:10.487Z,70.48
2019-03-21T15:55:41.392Z,70.29
2019-03-21T15:58:12.231Z,70.60
2019-03-21T16:00:44.208Z,70.43
2019-03-21T16:03:15.038Z,70.78
2019-03-21T16:05:46.005Z,70.83
2019-03-21T16:08:16.800Z,70.76
2019-03-21T16:10:47.579Z,70.33
2019-03-21T16:13:18.412Z,70.27
2019-03-21T16:15:49.214Z,70.52
2019-03-21T16:18:20.392Z,70.93
2019-03-21T16:20:51.362Z,71.16
2019-03-21T16:23:21.805Z,71.29
2019-03-21T16:25:55.642Z,71.42
2019-03-21T16:28:26.500Z,71.47
2019-03-21T16:30:57.326Z,71.68
2019-03-21T16:33:28.573Z,71.92
2019-03-21T16:36:01.149Z,71.82
2019-03-21T16:38:31.992Z,72.15
2019-03-21T16:41:02.513Z,72.06
2019-03-21T16:43:33.427Z,72.26
2019-03-21T16:46:04.604Z,72.33
2019-03-21T16:48:35.627Z,72.70
2019-03-21T16:51:06.476Z,72.57
2019-03-21T16:53:37.406Z,72.89
2019-03-21T16:56:07.933Z,72.69
2019-03-21T16:58:38.794Z,73.24
2019-03-21T17:01:09.200Z,73.15
2019-03-21T17:03:40.067Z,73.28
2019-03-21T17:06:10.869Z,73.37
2019-03-21T17:08:41.768Z,73.45
2019-03-21T17:11:12.766Z,73.22
2019-03-21T17:13:43.749Z,73.75
2019-03-21T17:16:15.133Z,73.94
2019-03-21T17:18:46.111Z,73.95
2019-03-21T17:21:16.911Z,73.97
2019-03-21T17:23:47.877Z,74.30
2019-03-21T17:26:18.702Z,74.13
2019-03-21T17:28:49.485Z,74.19
2019-03-21T17:31:20.483Z,74.23
2019-03-21T17:33:51.359Z,74.28
2019-03-21T17:36:22.348Z,74.40
2019-03-21T17:38:54.222Z,74.35
2019-03-21T17:41:25.059Z,74.64
2019-03-21T17:43:55.998Z,74.87
2019-03-21T17:46:26.586Z,74.94
2019-03-21T17:48:57.471Z,74.97
2019-03-21T17:51:28.416Z,75.00
2019-03-21T17:53:58.971Z,75.25
2019-03-21T17:56:29.873Z,75.05
2019-03-21T17:59:00.816Z,75.20
2019-03-21T18:01:31.549Z,75.15
2019-03-21T18:04:02.638Z,75.15
2019-03-21T18:06:35.382Z,75.32
2019-03-21T18:09:08.177Z,75.37
2019-03-21T18:11:40.103Z,75.32
2019-03-21T18:14:10.672Z,75.44
2019-03-21T18:16:41.486Z,75.56
2019-03-21T18:19:12.354Z,75.66
2019-03-21T18:21:43.183Z,75.68
2019-03-21T18:24:13.984Z,75.62
2019-03-21T18:26:45.013Z,75.64
2019-03-21T18:29:15.795Z,75.93
2019-03-21T18:31:46.589Z,75.78
2019-03-21T18:34:17.426Z,75.83
2019-03-21T18:36:52.173Z,75.96
2019-03-21T18:39:22.996Z,76.03
2019-03-21T18:41:53.977Z,76.12
2019-03-21T18:44:24.769Z,76.19
2019-03-21T18:46:55.871Z,76.39
2019-03-21T18:49:28.012Z,76.56
2019-03-21T18:52:00.527Z,76.70
2019-03-21T18:54:31.549Z,76.20
2019-03-21T18:57:02.472Z,76.37
2019-03-21T18:59:33.747Z,76.39
2019-03-21T19:02:04.756Z,76.44
2019-03-21T19:04:35.463Z,76.61
2019-03-21T19:07:06.009Z,76.55
2019-03-21T19:09:38.455Z,76.67
2019-03-21T19:12:09.295Z,76.65
2019-03-21T19:14:40.199Z,76.65
2019-03-21T19:17:10.987Z,76.87
2019-03-21T19:19:41.908Z,76.70
2019-03-21T19:22:12.729Z,76.66
2019-03-21T19:24:43.511Z,76.70
2019-03-21T19:27:15.882Z,76.98
2019-03-21T19:29:46.699Z,77.24
2019-03-21T19:32:18.590Z,77.44
2019-03-21T19:34:49.143Z,77.49
2019-03-21T19:37:19.944Z,77.41
2019-03-21T19:39:50.754Z,77.62
2019-03-21T19:42:23.178Z,77.65
2019-03-21T19:44:55.280Z,77.77
2019-03-21T19:47:34.591Z,77.89
2019-03-21T19:50:09.962Z,77.86
2019-03-21T19:52:40.711Z,77.91
2019-03-21T19:55:12.258Z,78.04
2019-03-21T19:57:42.741Z,78.13
2019-03-21T20:00:20.795Z,78.16
2019-03-21T20:02:53.508Z,78.32
2019-03-21T20:05:24.649Z,78.30
2019-03-21T20:07:56.815Z,78.35
2019-03-21T20:10:29.248Z,78.52
2019-03-21T20:13:00.289Z,78.45
2019-03-21T20:15:33.035Z,78.57
2019-03-21T20:18:04.019Z,78.65
2019-03-21T20:20:35.146Z,78.65
2019-03-21T20:23:06.090Z,78.96
2019-03-21T20:26:02.098Z,78.85
2019-03-21T20:28:33.082Z,78.81
2019-03-21T20:31:04.584Z,79.05
2019-03-21T20:33:35.358Z,79.24
2019-03-21T20:36:06.135Z,79.31
2019-03-21T20:38:37.042Z,79.28
2019-03-21T20:41:07.868Z,79.47
2019-03-21T20:43:38.698Z,79.64
2019-03-21T20:46:09.188Z,79.85
2019-03-21T20:48:38.519Z,79.77
2019-03-21T20:51:10.908Z,79.62
2019-03-21T20:53:41.884Z,79.84
2019-03-21T20:56:12.589Z,79.68
2019-03-21T20:58:43.402Z,80.16
2019-03-21T21:01:14.241Z,79.97
2019-03-21T21:03:45.219Z,80.21
2019-03-21T21:06:16.151Z,80.32
2019-03-21T21:08:46.692Z,80.62
2019-03-21T21:11:17.625Z,80.46
2019-03-21T21:13:48.528Z,80.85
2019-03-21T21:16:19.412Z,80.55
2019-03-21T21:18:50.245Z,80.94
2019-03-21T21:21:21.180Z,81.11
2019-03-21T21:23:51.752Z,81.17
2019-03-21T21:26:22.544Z,81.20
2019-03-21T21:28:54.316Z,81.05
2019-03-21T21:31:25.246Z,81.24
2019-03-21T21:33:55.909Z,81.42
2019-03-21T21:36:26.402Z,81.65
2019-03-21T21:38:57.023Z,81.70
2019-03-21T21:41:27.989Z,81.84
2019-03-21T21:43:58.883Z,81.81
2019-03-21T21:46:29.848Z,82.04
2019-03-21T21:49:00.780Z,81.88
2019-03-21T21:51:31.744Z,82.02
2019-03-21T21:54:02.549Z,82.09
2019-03-21T21:56:33.381Z,82.11
2019-03-21T21:59:04.365Z,82.32
2019-03-21T22:01:35.179Z,82.28
2019-03-21T22:04:05.669Z,82.41
2019-03-21T22:06:36.819Z,82.35
2019-03-21T22:09:08.153Z,82.41
2019-03-21T22:11:39.080Z,82.41
2019-03-21T22:14:10.005Z,82.50
2019-03-21T22:16:40.879Z,82.38
2019-03-21T22:19:11.745Z,82.79
2019-03-21T22:21:42.247Z,82.80
2019-03-21T22:24:12.983Z,82.80
2019-03-21T22:26:43.857Z,82.88
2019-03-21T22:29:14.577Z,83.12
2019-03-21T22:31:45.407Z,83.12
2019-03-21T22:34:18.942Z,83.17
2019-03-21T22:36:49.769Z,83.29
2019-03-21T22:39:20.853Z,83.29
2019-03-21T22:41:51.346Z,83.30
2019-03-21T22:44:22.176Z,83.70
2019-03-21T22:46:52.977Z,83.86
2019-03-21T22:49:23.717Z,83.52
2019-03-21T22:51:54.557Z,83.39
2019-03-21T22:54:25.379Z,83.61
2019-03-21T22:56:56.117Z,84.14
2019-03-21T22:59:26.646Z,84.49
2019-03-21T23:01:57.154Z,85.27
2019-03-21T23:04:28.005Z,85.09
2019-03-21T23:06:58.945Z,85.15
2019-03-21T23:09:29.798Z,85.20
2019-03-21T23:12:00.971Z,84.90
2019-03-21T23:14:31.762Z,84.73
2019-03-21T23:17:02.623Z,84.66
2019-03-21T23:19:33.073Z,84.54
2019-03-21T23:22:04.108Z,84.79
2019-03-21T23:24:34.953Z,84.96
2019-03-21T23:27:06.373Z,85.01
2019-03-21T23:29:37.139Z,84.96
2019-03-21T23:32:08.145Z,84.79
2019-03-21T23:34:38.687Z,84.59
2019-03-21T23:37:09.265Z,84.58
2019-03-21T23:39:39.766Z,84.41
2019-03-21T23:42:10.287Z,84.29
2019-03-21T23:44:41.202Z,84.42
2019-03-21T23:47:12.209Z,84.22
2019-03-21T23:49:42.678Z,84.03
2019-03-21T23:52:13.399Z,83.87
2019-03-21T23:54:44.254Z,84.06
2019-03-21T23:57:14.959Z,83.95
2019-03-21T23:59:45.919Z,83.91
